sensor_id;sensor_type;location;lat;lon;timestamp;temperature;humidity
27164;DHT22;14685;50.618;7.024;2024-02-21T00:01:32;11.20;99.90
27164;DHT22;14685;50.618;7.024;2024-02-21T00:04:00;11.20;99.90
27164;DHT22;14685;50.618;7.024;2024-02-21T00:06:27;11.20;99.90
27164;DHT22;14685;50.618;7.024;2024-02-21T00:08:55;11.10;99.90
27164;DHT22;14685;50.618;7.024;2024-02-21T00:11:22;11.00;99.90
27164;DHT22;14685;50.618;7.024;2024-02-21T00:13:49;10.90;99.90
27164;DHT22;14685;50.618;7.024;2024-02-21T00:16:18;10.90;99.90
27164;DHT22;14685;50.618;7.024;2024-02-21T00:18:45;10.90;99.90
27164;DHT22;14685;50.618;7.024;2024-02-21T00:21:12;10.80;99.90
27164;DHT22;14685;50.618;7.024;2024-02-21T00:23:46;10.90;99.90
27164;DHT22;14685;50.618;7.024;2024-02-21T00:26:14;10.90;99.90
27164;DHT22;14685;50.618;7.024;2024-02-21T00:28:41;10.90;99.90
27164;DHT22;14685;50.618;7.024;2024-02-21T00:31:08;10.80;99.90
27164;DHT22;14685;50.618;7.024;2024-02-21T00:33:35;10.80;99.90
27164;DHT22;14685;50.618;7.024;2024-02-21T00:36:02;10.80;99.90
27164;DHT22;14685;50.618;7.024;2024-02-21T00:38:29;10.90;99.90
27164;DHT22;14685;50.618;7.024;2024-02-21T00:40:56;10.90;99.90
27164;DHT22;14685;50.618;7.024;2024-02-21T00:43:24;10.90;99.90
27164;DHT22;14685;50.618;7.024;2024-02-21T00:45:51;10.90;99.90
27164;DHT22;14685;50.618;7.024;2024-02-21T00:48:18;11.00;99.90
27164;DHT22;14685;50.618;7.024;2024-02-21T00:50:45;11.00;99.90
27164;DHT22;14685;50.618;7.024;2024-02-21T00:53:12;11.00;99.90
27164;DHT22;14685;50.618;7.024;2024-02-21T00:55:39;11.10;99.90
27164;DHT22;14685;50.618;7.024;2024-02-21T00:58:07;11.10;99.90
27164;DHT22;14685;50.618;7.024;2024-02-21T01:00:35;11.10;99.90
27164;DHT22;14685;50.618;7.024;2024-02-21T01:03:04;11.20;99.90
27164;DHT22;14685;50.618;7.024;2024-02-21T01:05:31;11.20;99.90
27164;DHT22;14685;50.618;7.024;2024-02-21T01:07:58;11.20;99.90
27164;DHT22;14685;50.618;7.024;2024-02-21T01:10:25;11.10;99.90
27164;DHT22;14685;50.618;7.024;2024-02-21T01:12:52;11.10;99.90
27164;DHT22;14685;50.618;7.024;2024-02-21T01:15:19;11.10;99.90
27164;DHT22;14685;50.618;7.024;2024-02-21T01:17:47;11.10;99.90
27164;DHT22;14685;50.618;7.024;2024-02-21T01:20:14;11.00;99.90
27164;DHT22;14685;50.618;7.024;2024-02-21T01:22:46;11.10;99.90
27164;DHT22;14685;50.618;7.024;2024-02-21T01:25:14;11.00;99.90
27164;DHT22;14685;50.618;7.024;2024-02-21T01:27:41;11.00;99.90
27164;DHT22;14685;50.618;7.024;2024-02-21T01:30:08;11.00;99.90
27164;DHT22;14685;50.618;7.024;2024-02-21T01:32:37;11.00;99.90
27164;DHT22;14685;50.618;7.024;2024-02-21T01:35:04;11.00;99.90
27164;DHT22;14685;50.618;7.024;2024-02-21T01:37:31;10.90;99.90
27164;DHT22;14685;50.618;7.024;2024-02-21T01:40:04;10.90;99.90
27164;DHT22;14685;50.618;7.024;2024-02-21T01:42:31;10.90;99.90
27164;DHT22;14685;50.618;7.024;2024-02-21T01:44:58;10.90;99.90
27164;DHT22;14685;50.618;7.024;2024-02-21T01:47:25;10.80;99.90
27164;DHT22;14685;50.618;7.024;2024-02-21T01:49:56;10.90;99.90
27164;DHT22;14685;50.618;7.024;2024-02-21T01:52:23;10.90;99.90
27164;DHT22;14685;50.618;7.024;2024-02-21T01:54:50;10.90;99.90
27164;DHT22;14685;50.618;7.024;2024-02-21T01:57:20;10.90;99.90
27164;DHT22;14685;50.618;7.024;2024-02-21T01:59:47;10.80;99.90
27164;DHT22;14685;50.618;7.024;2024-02-21T02:02:15;10.80;99.90
27164;DHT22;14685;50.618;7.024;2024-02-21T02:04:43;10.80;99.90
27164;DHT22;14685;50.618;7.024;2024-02-21T02:07:12;10.90;99.90
27164;DHT22;14685;50.618;7.024;2024-02-21T02:09:39;10.90;99.90
27164;DHT22;14685;50.618;7.024;2024-02-21T02:12:06;10.90;99.90
27164;DHT22;14685;50.618;7.024;2024-02-21T02:14:36;10.90;99.90
27164;DHT22;14685;50.618;7.024;2024-02-21T02:17:04;11.00;99.90
27164;DHT22;14685;50.618;7.024;2024-02-21T02:19:32;10.90;99.90
27164;DHT22;14685;50.618;7.024;2024-02-21T02:22:07;11.00;99.90
27164;DHT22;14685;50.618;7.024;2024-02-21T02:24:36;11.00;99.90
27164;DHT22;14685;50.618;7.024;2024-02-21T02:27:03;11.00;99.90
27164;DHT22;14685;50.618;7.024;2024-02-21T02:29:33;11.00;99.90
27164;DHT22;14685;50.618;7.024;2024-02-21T02:31:59;11.10;99.90
27164;DHT22;14685;50.618;7.024;2024-02-21T02:34:27;11.00;99.90
27164;DHT22;14685;50.618;7.024;2024-02-21T02:36:54;11.00;99.90
27164;DHT22;14685;50.618;7.024;2024-02-21T02:39:21;11.00;99.90
27164;DHT22;14685;50.618;7.024;2024-02-21T02:41:48;11.10;99.90
27164;DHT22;14685;50.618;7.024;2024-02-21T02:44:16;11.00;99.90
27164;DHT22;14685;50.618;7.024;2024-02-21T02:46:43;11.00;99.90
27164;DHT22;14685;50.618;7.024;2024-02-21T02:49:10;11.10;99.90
27164;DHT22;14685;50.618;7.024;2024-02-21T02:51:42;11.00;99.90
27164;DHT22;14685;50.618;7.024;2024-02-21T02:54:09;10.90;99.90
27164;DHT22;14685;50.618;7.024;2024-02-21T02:56:37;10.80;99.90
27164;DHT22;14685;50.618;7.024;2024-02-21T02:59:04;10.80;99.90
27164;DHT22;14685;50.618;7.024;2024-02-21T03:01:34;10.70;99.90
27164;DHT22;14685;50.618;7.024;2024-02-21T03:04:01;10.70;99.90
27164;DHT22;14685;50.618;7.024;2024-02-21T03:06:28;10.60;99.90
27164;DHT22;14685;50.618;7.024;2024-02-21T03:08:55;10.50;99.90
27164;DHT22;14685;50.618;7.024;2024-02-21T03:11:23;10.50;99.90
27164;DHT22;14685;50.618;7.024;2024-02-21T03:13:57;10.40;99.90
27164;DHT22;14685;50.618;7.024;2024-02-21T03:16:24;10.40;99.90
27164;DHT22;14685;50.618;7.024;2024-02-21T03:18:52;10.30;99.90
27164;DHT22;14685;50.618;7.024;2024-02-21T03:21:19;10.30;99.90
27164;DHT22;14685;50.618;7.024;2024-02-21T03:23:46;10.30;99.90
27164;DHT22;14685;50.618;7.024;2024-02-21T03:26:13;10.20;99.90
27164;DHT22;14685;50.618;7.024;2024-02-21T03:28:44;10.30;99.90
27164;DHT22;14685;50.618;7.024;2024-02-21T03:31:14;10.30;99.90
27164;DHT22;14685;50.618;7.024;2024-02-21T03:33:42;10.20;99.90
27164;DHT22;14685;50.618;7.024;2024-02-21T03:36:15;10.20;99.90
27164;DHT22;14685;50.618;7.024;2024-02-21T03:38:45;10.20;99.90
27164;DHT22;14685;50.618;7.024;2024-02-21T03:41:12;10.10;99.90
27164;DHT22;14685;50.618;7.024;2024-02-21T03:43:41;10.10;99.90
27164;DHT22;14685;50.618;7.024;2024-02-21T03:46:08;10.10;99.90
27164;DHT22;14685;50.618;7.024;2024-02-21T03:48:36;10.10;99.90
27164;DHT22;14685;50.618;7.024;2024-02-21T03:51:03;10.10;99.90
27164;DHT22;14685;50.618;7.024;2024-02-21T03:53:31;10.00;99.90
27164;DHT22;14685;50.618;7.024;2024-02-21T03:56:01;10.00;99.90
27164;DHT22;14685;50.618;7.024;2024-02-21T03:58:30;10.00;99.90
27164;DHT22;14685;50.618;7.024;2024-02-21T04:01:01;10.10;99.90
27164;DHT22;14685;50.618;7.024;2024-02-21T04:03:29;10.20;99.90
27164;DHT22;14685;50.618;7.024;2024-02-21T04:05:57;10.30;99.90
27164;DHT22;14685;50.618;7.024;2024-02-21T04:08:24;10.30;99.90
27164;DHT22;14685;50.618;7.024;2024-02-21T04:10:52;10.40;99.90
27164;DHT22;14685;50.618;7.024;2024-02-21T04:13:19;10.40;99.90
27164;DHT22;14685;50.618;7.024;2024-02-21T04:15:45;10.40;99.90
27164;DHT22;14685;50.618;7.024;2024-02-21T04:18:13;10.40;99.90
27164;DHT22;14685;50.618;7.024;2024-02-21T04:20:43;10.50;99.90
27164;DHT22;14685;50.618;7.024;2024-02-21T04:23:10;10.50;99.90
27164;DHT22;14685;50.618;7.024;2024-02-21T04:25:37;10.50;99.90
27164;DHT22;14685;50.618;7.024;2024-02-21T04:28:06;10.60;99.90
27164;DHT22;14685;50.618;7.024;2024-02-21T04:30:34;10.60;99.90
27164;DHT22;14685;50.618;7.024;2024-02-21T04:33:02;10.60;99.90
27164;DHT22;14685;50.618;7.024;2024-02-21T04:35:29;10.60;99.90
27164;DHT22;14685;50.618;7.024;2024-02-21T04:37:58;10.70;99.90
27164;DHT22;14685;50.618;7.024;2024-02-21T04:40:25;10.70;99.90
27164;DHT22;14685;50.618;7.024;2024-02-21T04:42:52;10.70;99.90
27164;DHT22;14685;50.618;7.024;2024-02-21T04:45:19;10.70;99.90
27164;DHT22;14685;50.618;7.024;2024-02-21T04:47:46;10.70;99.90
27164;DHT22;14685;50.618;7.024;2024-02-21T04:50:13;10.70;99.90
27164;DHT22;14685;50.618;7.024;2024-02-21T04:52:42;10.70;99.90
27164;DHT22;14685;50.618;7.024;2024-02-21T04:55:09;10.60;99.90
27164;DHT22;14685;50.618;7.024;2024-02-21T04:57:37;10.60;99.90
27164;DHT22;14685;50.618;7.024;2024-02-21T05:00:06;10.60;99.90
27164;DHT22;14685;50.618;7.024;2024-02-21T05:02:35;10.60;99.90
27164;DHT22;14685;50.618;7.024;2024-02-21T05:05:01;10.60;99.90
27164;DHT22;14685;50.618;7.024;2024-02-21T05:07:29;10.70;99.90
27164;DHT22;14685;50.618;7.024;2024-02-21T05:09:56;10.70;99.90
27164;DHT22;14685;50.618;7.024;2024-02-21T05:12:23;10.70;99.90
27164;DHT22;14685;50.618;7.024;2024-02-21T05:14:50;10.70;99.90
27164;DHT22;14685;50.618;7.024;2024-02-21T05:17:17;10.70;99.90
27164;DHT22;14685;50.618;7.024;2024-02-21T05:19:44;10.70;99.90
27164;DHT22;14685;50.618;7.024;2024-02-21T05:22:11;10.70;99.90
27164;DHT22;14685;50.618;7.024;2024-02-21T05:24:39;10.70;99.90
27164;DHT22;14685;50.618;7.024;2024-02-21T05:27:06;10.60;99.90
27164;DHT22;14685;50.618;7.024;2024-02-21T05:29:33;10.60;99.90
27164;DHT22;14685;50.618;7.024;2024-02-21T05:32:02;10.50;99.90
27164;DHT22;14685;50.618;7.024;2024-02-21T05:34:31;10.50;99.90
27164;DHT22;14685;50.618;7.024;2024-02-21T05:36:58;10.50;99.90
27164;DHT22;14685;50.618;7.024;2024-02-21T05:39:27;10.50;99.90
27164;DHT22;14685;50.618;7.024;2024-02-21T05:41:56;10.50;99.90
27164;DHT22;14685;50.618;7.024;2024-02-21T05:44:24;10.50;99.90
27164;DHT22;14685;50.618;7.024;2024-02-21T05:46:51;10.50;99.90
27164;DHT22;14685;50.618;7.024;2024-02-21T05:49:18;10.50;99.90
27164;DHT22;14685;50.618;7.024;2024-02-21T05:51:45;10.50;99.90
27164;DHT22;14685;50.618;7.024;2024-02-21T05:54:14;10.40;99.90
27164;DHT22;14685;50.618;7.024;2024-02-21T05:56:46;10.40;99.90
27164;DHT22;14685;50.618;7.024;2024-02-21T05:59:14;10.40;99.90
27164;DHT22;14685;50.618;7.024;2024-02-21T06:01:43;10.30;99.90
27164;DHT22;14685;50.618;7.024;2024-02-21T06:04:11;10.40;99.90
27164;DHT22;14685;50.618;7.024;2024-02-21T06:06:38;10.40;99.90
27164;DHT22;14685;50.618;7.024;2024-02-21T06:09:06;10.40;99.90
27164;DHT22;14685;50.618;7.024;2024-02-21T06:11:35;10.40;99.90
27164;DHT22;14685;50.618;7.024;2024-02-21T06:14:09;10.40;99.90
27164;DHT22;14685;50.618;7.024;2024-02-21T06:16:36;10.50;99.90
27164;DHT22;14685;50.618;7.024;2024-02-21T06:19:03;10.50;99.90
27164;DHT22;14685;50.618;7.024;2024-02-21T06:21:33;10.40;99.90
27164;DHT22;14685;50.618;7.024;2024-02-21T06:24:00;10.40;99.90
27164;DHT22;14685;50.618;7.024;2024-02-21T06:26:28;10.40;99.90
27164;DHT22;14685;50.618;7.024;2024-02-21T06:28:55;10.40;99.90
27164;DHT22;14685;50.618;7.024;2024-02-21T06:31:22;10.40;99.90
27164;DHT22;14685;50.618;7.024;2024-02-21T06:33:50;10.30;99.90
27164;DHT22;14685;50.618;7.024;2024-02-21T06:36:17;10.30;99.90
27164;DHT22;14685;50.618;7.024;2024-02-21T06:38:44;10.30;99.90
27164;DHT22;14685;50.618;7.024;2024-02-21T06:41:18;10.40;99.90
27164;DHT22;14685;50.618;7.024;2024-02-21T06:43:47;10.40;99.90
27164;DHT22;14685;50.618;7.024;2024-02-21T06:46:26;10.40;99.90
27164;DHT22;14685;50.618;7.024;2024-02-21T06:49:01;10.40;99.90
27164;DHT22;14685;50.618;7.024;2024-02-21T06:51:34;10.40;99.90
27164;DHT22;14685;50.618;7.024;2024-02-21T06:54:01;10.40;99.90
27164;DHT22;14685;50.618;7.024;2024-02-21T06:56:30;10.30;99.90
27164;DHT22;14685;50.618;7.024;2024-02-21T06:58:58;10.20;99.90
27164;DHT22;14685;50.618;7.024;2024-02-21T07:01:27;10.20;99.90
27164;DHT22;14685;50.618;7.024;2024-02-21T07:03:55;10.10;99.90
27164;DHT22;14685;50.618;7.024;2024-02-21T07:06:23;10.10;99.90
27164;DHT22;14685;50.618;7.024;2024-02-21T07:08:50;10.10;99.90
27164;DHT22;14685;50.618;7.024;2024-02-21T07:11:18;10.20;99.90
27164;DHT22;14685;50.618;7.024;2024-02-21T07:13:46;10.20;99.90
27164;DHT22;14685;50.618;7.024;2024-02-21T07:16:13;10.30;99.90
27164;DHT22;14685;50.618;7.024;2024-02-21T07:18:41;10.40;99.90
27164;DHT22;14685;50.618;7.024;2024-02-21T07:21:13;10.40;99.90
27164;DHT22;14685;50.618;7.024;2024-02-21T07:23:41;10.50;99.90
27164;DHT22;14685;50.618;7.024;2024-02-21T07:26:09;10.40;99.90
27164;DHT22;14685;50.618;7.024;2024-02-21T07:28:36;10.40;99.90
27164;DHT22;14685;50.618;7.024;2024-02-21T07:31:03;10.40;99.90
27164;DHT22;14685;50.618;7.024;2024-02-21T07:33:32;10.40;99.90
27164;DHT22;14685;50.618;7.024;2024-02-21T07:36:01;10.50;99.90
27164;DHT22;14685;50.618;7.024;2024-02-21T07:38:32;10.40;99.90
27164;DHT22;14685;50.618;7.024;2024-02-21T07:41:00;10.40;99.90
27164;DHT22;14685;50.618;7.024;2024-02-21T07:43:27;10.40;99.90
27164;DHT22;14685;50.618;7.024;2024-02-21T07:45:54;10.30;99.90
27164;DHT22;14685;50.618;7.024;2024-02-21T07:48:24;10.30;99.90
27164;DHT22;14685;50.618;7.024;2024-02-21T07:50:53;10.30;99.90
27164;DHT22;14685;50.618;7.024;2024-02-21T07:53:27;10.30;99.90
27164;DHT22;14685;50.618;7.024;2024-02-21T07:55:55;10.20;99.90
27164;DHT22;14685;50.618;7.024;2024-02-21T07:58:22;10.20;99.90
27164;DHT22;14685;50.618;7.024;2024-02-21T08:00:49;10.20;99.90
27164;DHT22;14685;50.618;7.024;2024-02-21T08:03:17;10.20;99.90
27164;DHT22;14685;50.618;7.024;2024-02-21T08:05:44;10.20;99.90
27164;DHT22;14685;50.618;7.024;2024-02-21T08:08:12;10.30;99.90
27164;DHT22;14685;50.618;7.024;2024-02-21T08:10:45;10.30;99.90
27164;DHT22;14685;50.618;7.024;2024-02-21T08:13:12;10.40;99.90
27164;DHT22;14685;50.618;7.024;2024-02-21T08:15:39;10.40;99.90
27164;DHT22;14685;50.618;7.024;2024-02-21T08:18:08;10.50;99.90
27164;DHT22;14685;50.618;7.024;2024-02-21T08:20:36;10.50;99.90
27164;DHT22;14685;50.618;7.024;2024-02-21T08:23:03;10.60;99.90
27164;DHT22;14685;50.618;7.024;2024-02-21T08:25:30;10.60;99.90
27164;DHT22;14685;50.618;7.024;2024-02-21T08:27:58;10.60;99.90
27164;DHT22;14685;50.618;7.024;2024-02-21T08:30:27;10.60;99.90
27164;DHT22;14685;50.618;7.024;2024-02-21T08:32:54;10.60;99.90
27164;DHT22;14685;50.618;7.024;2024-02-21T08:35:28;10.60;99.90
27164;DHT22;14685;50.618;7.024;2024-02-21T08:37:57;10.60;99.90
27164;DHT22;14685;50.618;7.024;2024-02-21T08:40:26;10.60;99.90
27164;DHT22;14685;50.618;7.024;2024-02-21T08:42:53;10.60;99.90
27164;DHT22;14685;50.618;7.024;2024-02-21T08:45:20;10.60;99.90
27164;DHT22;14685;50.618;7.024;2024-02-21T08:47:48;10.60;99.90
27164;DHT22;14685;50.618;7.024;2024-02-21T08:50:17;10.60;99.90
27164;DHT22;14685;50.618;7.024;2024-02-21T08:52:54;10.70;99.90
27164;DHT22;14685;50.618;7.024;2024-02-21T08:55:22;10.70;99.90
27164;DHT22;14685;50.618;7.024;2024-02-21T08:57:49;10.80;99.90
27164;DHT22;14685;50.618;7.024;2024-02-21T09:00:17;10.80;99.90
27164;DHT22;14685;50.618;7.024;2024-02-21T09:02:44;10.90;99.90
27164;DHT22;14685;50.618;7.024;2024-02-21T09:05:11;11.00;99.90
27164;DHT22;14685;50.618;7.024;2024-02-21T09:07:38;11.10;99.90
27164;DHT22;14685;50.618;7.024;2024-02-21T09:10:06;11.00;99.90
27164;DHT22;14685;50.618;7.024;2024-02-21T09:12:34;11.10;99.90
27164;DHT22;14685;50.618;7.024;2024-02-21T09:15:01;11.10;99.90
27164;DHT22;14685;50.618;7.024;2024-02-21T09:17:28;11.20;99.90
27164;DHT22;14685;50.618;7.024;2024-02-21T09:19:57;11.20;99.90
27164;DHT22;14685;50.618;7.024;2024-02-21T09:22:29;11.20;99.90
27164;DHT22;14685;50.618;7.024;2024-02-21T09:24:57;11.10;99.90
27164;DHT22;14685;50.618;7.024;2024-02-21T09:27:24;11.10;99.90
27164;DHT22;14685;50.618;7.024;2024-02-21T09:29:53;11.10;99.90
27164;DHT22;14685;50.618;7.024;2024-02-21T09:32:21;11.10;99.90
27164;DHT22;14685;50.618;7.024;2024-02-21T09:34:48;11.10;99.90
27164;DHT22;14685;50.618;7.024;2024-02-21T09:37:15;11.10;99.90
27164;DHT22;14685;50.618;7.024;2024-02-21T09:39:43;11.20;99.90
27164;DHT22;14685;50.618;7.024;2024-02-21T09:42:11;11.30;99.90
27164;DHT22;14685;50.618;7.024;2024-02-21T09:44:38;11.30;99.90
27164;DHT22;14685;50.618;7.024;2024-02-21T09:47:26;11.40;99.90
27164;DHT22;14685;50.618;7.024;2024-02-21T09:49:58;11.40;99.90
27164;DHT22;14685;50.618;7.024;2024-02-21T09:52:26;11.40;99.90
27164;DHT22;14685;50.618;7.024;2024-02-21T09:54:54;11.30;99.90
27164;DHT22;14685;50.618;7.024;2024-02-21T09:57:22;11.40;99.90
27164;DHT22;14685;50.618;7.024;2024-02-21T09:59:50;11.40;99.90
27164;DHT22;14685;50.618;7.024;2024-02-21T10:02:18;11.40;99.90
27164;DHT22;14685;50.618;7.024;2024-02-21T10:04:45;11.40;99.90
27164;DHT22;14685;50.618;7.024;2024-02-21T10:07:12;11.40;99.90
27164;DHT22;14685;50.618;7.024;2024-02-21T10:09:39;11.40;99.90
27164;DHT22;14685;50.618;7.024;2024-02-21T10:12:08;11.40;99.90
27164;DHT22;14685;50.618;7.024;2024-02-21T10:14:37;11.50;99.90
27164;DHT22;14685;50.618;7.024;2024-02-21T10:17:14;11.50;99.90
27164;DHT22;14685;50.618;7.024;2024-02-21T10:19:44;11.50;99.90
27164;DHT22;14685;50.618;7.024;2024-02-21T10:22:12;11.50;99.90
27164;DHT22;14685;50.618;7.024;2024-02-21T10:24:39;11.60;99.90
27164;DHT22;14685;50.618;7.024;2024-02-21T10:27:09;11.60;99.90
27164;DHT22;14685;50.618;7.024;2024-02-21T10:29:39;11.60;99.90
27164;DHT22;14685;50.618;7.024;2024-02-21T10:32:08;11.60;99.90
27164;DHT22;14685;50.618;7.024;2024-02-21T10:34:38;11.60;99.90
27164;DHT22;14685;50.618;7.024;2024-02-21T10:37:11;11.70;99.90
27164;DHT22;14685;50.618;7.024;2024-02-21T10:39:40;11.70;99.90
27164;DHT22;14685;50.618;7.024;2024-02-21T10:42:07;11.80;99.90
27164;DHT22;14685;50.618;7.024;2024-02-21T10:44:39;11.90;99.90
27164;DHT22;14685;50.618;7.024;2024-02-21T10:47:09;11.90;99.90
27164;DHT22;14685;50.618;7.024;2024-02-21T10:49:41;12.10;99.90
27164;DHT22;14685;50.618;7.024;2024-02-21T10:55:09;12.10;99.90
27164;DHT22;14685;50.618;7.024;2024-02-21T10:57:38;12.10;99.90
27164;DHT22;14685;50.618;7.024;2024-02-21T11:00:06;12.10;99.90
27164;DHT22;14685;50.618;7.024;2024-02-21T11:02:39;12.10;99.90
27164;DHT22;14685;50.618;7.024;2024-02-21T11:05:08;12.10;99.90
27164;DHT22;14685;50.618;7.024;2024-02-21T11:07:38;12.10;99.90
27164;DHT22;14685;50.618;7.024;2024-02-21T11:10:05;12.20;99.90
27164;DHT22;14685;50.618;7.024;2024-02-21T11:12:47;12.20;99.90
27164;DHT22;14685;50.618;7.024;2024-02-21T11:15:15;12.20;99.90
27164;DHT22;14685;50.618;7.024;2024-02-21T11:17:53;12.30;99.90
27164;DHT22;14685;50.618;7.024;2024-02-21T11:20:34;12.30;99.90
27164;DHT22;14685;50.618;7.024;2024-02-21T11:23:03;12.20;99.90
27164;DHT22;14685;50.618;7.024;2024-02-21T11:25:30;12.20;99.90
27164;DHT22;14685;50.618;7.024;2024-02-21T11:28:04;12.20;99.90
27164;DHT22;14685;50.618;7.024;2024-02-21T11:30:37;12.20;99.90
27164;DHT22;14685;50.618;7.024;2024-02-21T11:33:08;12.20;99.90
27164;DHT22;14685;50.618;7.024;2024-02-21T11:35:36;12.20;99.90
27164;DHT22;14685;50.618;7.024;2024-02-21T11:38:12;12.20;99.90
27164;DHT22;14685;50.618;7.024;2024-02-21T11:40:45;12.20;99.90
27164;DHT22;14685;50.618;7.024;2024-02-21T11:43:13;12.20;99.90
27164;DHT22;14685;50.618;7.024;2024-02-21T11:45:41;12.20;99.90
27164;DHT22;14685;50.618;7.024;2024-02-21T11:48:09;12.10;99.90
27164;DHT22;14685;50.618;7.024;2024-02-21T11:50:36;12.00;99.90
27164;DHT22;14685;50.618;7.024;2024-02-21T11:53:03;12.00;99.90
27164;DHT22;14685;50.618;7.024;2024-02-21T11:55:30;12.00;99.90
27164;DHT22;14685;50.618;7.024;2024-02-21T11:57:58;12.00;99.90
27164;DHT22;14685;50.618;7.024;2024-02-21T12:00:25;12.00;99.90
27164;DHT22;14685;50.618;7.024;2024-02-21T12:02:52;12.00;99.90
27164;DHT22;14685;50.618;7.024;2024-02-21T12:05:21;11.90;99.90
27164;DHT22;14685;50.618;7.024;2024-02-21T12:07:48;12.00;99.90
27164;DHT22;14685;50.618;7.024;2024-02-21T12:10:15;12.00;99.90
27164;DHT22;14685;50.618;7.024;2024-02-21T12:12:42;12.10;99.90
27164;DHT22;14685;50.618;7.024;2024-02-21T12:15:12;12.10;99.90
27164;DHT22;14685;50.618;7.024;2024-02-21T12:17:39;12.10;99.90
27164;DHT22;14685;50.618;7.024;2024-02-21T12:20:07;12.10;99.90
27164;DHT22;14685;50.618;7.024;2024-02-21T12:22:44;12.10;99.90
27164;DHT22;14685;50.618;7.024;2024-02-21T12:25:19;12.10;99.90
27164;DHT22;14685;50.618;7.024;2024-02-21T12:27:47;12.20;99.90
27164;DHT22;14685;50.618;7.024;2024-02-21T12:30:14;12.20;99.90
27164;DHT22;14685;50.618;7.024;2024-02-21T12:32:41;12.20;99.90
27164;DHT22;14685;50.618;7.024;2024-02-21T12:35:08;12.20;99.90
27164;DHT22;14685;50.618;7.024;2024-02-21T12:37:35;12.20;99.90
27164;DHT22;14685;50.618;7.024;2024-02-21T12:40:06;12.10;99.90
27164;DHT22;14685;50.618;7.024;2024-02-21T12:42:34;12.20;99.90
27164;DHT22;14685;50.618;7.024;2024-02-21T12:45:02;12.20;99.90
27164;DHT22;14685;50.618;7.024;2024-02-21T12:47:30;12.20;99.90
27164;DHT22;14685;50.618;7.024;2024-02-21T12:49:57;12.20;99.90
27164;DHT22;14685;50.618;7.024;2024-02-21T12:52:24;12.00;99.90
27164;DHT22;14685;50.618;7.024;2024-02-21T12:54:53;12.10;99.90
27164;DHT22;14685;50.618;7.024;2024-02-21T12:57:23;12.20;99.90
27164;DHT22;14685;50.618;7.024;2024-02-21T12:59:54;12.30;99.90
27164;DHT22;14685;50.618;7.024;2024-02-21T13:02:21;12.30;99.90
27164;DHT22;14685;50.618;7.024;2024-02-21T13:04:48;12.30;99.90
27164;DHT22;14685;50.618;7.024;2024-02-21T13:07:17;12.10;99.90
27164;DHT22;14685;50.618;7.024;2024-02-21T13:09:48;12.10;99.90
27164;DHT22;14685;50.618;7.024;2024-02-21T13:12:17;12.10;99.90
27164;DHT22;14685;50.618;7.024;2024-02-21T13:14:44;12.10;99.90
27164;DHT22;14685;50.618;7.024;2024-02-21T13:17:11;12.10;99.90
27164;DHT22;14685;50.618;7.024;2024-02-21T13:19:38;12.00;99.90
27164;DHT22;14685;50.618;7.024;2024-02-21T13:22:06;12.00;99.90
27164;DHT22;14685;50.618;7.024;2024-02-21T13:24:33;12.00;99.90
27164;DHT22;14685;50.618;7.024;2024-02-21T13:27:03;12.10;99.90
27164;DHT22;14685;50.618;7.024;2024-02-21T13:29:30;12.10;99.90
27164;DHT22;14685;50.618;7.024;2024-02-21T13:31:58;12.10;99.90
27164;DHT22;14685;50.618;7.024;2024-02-21T13:34:25;12.20;99.90
27164;DHT22;14685;50.618;7.024;2024-02-21T13:36:52;12.10;99.90
27164;DHT22;14685;50.618;7.024;2024-02-21T13:39:23;12.10;99.90
27164;DHT22;14685;50.618;7.024;2024-02-21T13:41:51;12.10;99.90
27164;DHT22;14685;50.618;7.024;2024-02-21T13:44:21;12.10;99.90
27164;DHT22;14685;50.618;7.024;2024-02-21T13:46:48;12.00;99.90
27164;DHT22;14685;50.618;7.024;2024-02-21T13:49:15;12.00;99.90
27164;DHT22;14685;50.618;7.024;2024-02-21T13:51:42;12.00;99.90
27164;DHT22;14685;50.618;7.024;2024-02-21T13:54:11;12.00;99.90
27164;DHT22;14685;50.618;7.024;2024-02-21T13:56:41;12.00;99.90
27164;DHT22;14685;50.618;7.024;2024-02-21T13:59:12;11.90;99.90
27164;DHT22;14685;50.618;7.024;2024-02-21T14:01:40;11.90;99.90
27164;DHT22;14685;50.618;7.024;2024-02-21T14:04:07;11.90;99.90
27164;DHT22;14685;50.618;7.024;2024-02-21T14:06:34;11.90;99.90
27164;DHT22;14685;50.618;7.024;2024-02-21T14:09:03;11.90;99.90
27164;DHT22;14685;50.618;7.024;2024-02-21T14:11:31;11.90;99.90
27164;DHT22;14685;50.618;7.024;2024-02-21T14:13:58;11.90;99.90
27164;DHT22;14685;50.618;7.024;2024-02-21T14:16:25;11.80;99.90
27164;DHT22;14685;50.618;7.024;2024-02-21T14:18:52;11.80;99.90
27164;DHT22;14685;50.618;7.024;2024-02-21T14:21:21;11.80;99.90
27164;DHT22;14685;50.618;7.024;2024-02-21T14:23:48;11.90;99.90
27164;DHT22;14685;50.618;7.024;2024-02-21T14:26:15;11.80;99.90
27164;DHT22;14685;50.618;7.024;2024-02-21T14:28:42;11.80;99.90
27164;DHT22;14685;50.618;7.024;2024-02-21T14:31:09;11.80;99.90
27164;DHT22;14685;50.618;7.024;2024-02-21T14:33:38;11.80;99.90
27164;DHT22;14685;50.618;7.024;2024-02-21T14:36:06;11.90;99.90
27164;DHT22;14685;50.618;7.024;2024-02-21T14:38:35;11.90;99.90
27164;DHT22;14685;50.618;7.024;2024-02-21T14:41:03;11.90;99.90
27164;DHT22;14685;50.618;7.024;2024-02-21T14:43:31;12.00;99.90
27164;DHT22;14685;50.618;7.024;2024-02-21T14:45:58;11.90;99.90
27164;DHT22;14685;50.618;7.024;2024-02-21T14:48:26;11.90;99.90
27164;DHT22;14685;50.618;7.024;2024-02-21T14:50:55;11.90;99.90
27164;DHT22;14685;50.618;7.024;2024-02-21T14:53:23;11.90;99.90
27164;DHT22;14685;50.618;7.024;2024-02-21T14:55:51;11.80;99.90
27164;DHT22;14685;50.618;7.024;2024-02-21T14:58:18;11.80;99.90
27164;DHT22;14685;50.618;7.024;2024-02-21T15:00:46;11.80;99.90
27164;DHT22;14685;50.618;7.024;2024-02-21T15:03:19;11.80;99.90
27164;DHT22;14685;50.618;7.024;2024-02-21T15:05:47;11.80;99.90
27164;DHT22;14685;50.618;7.024;2024-02-21T15:08:14;11.80;99.90
27164;DHT22;14685;50.618;7.024;2024-02-21T15:10:45;11.70;99.90
27164;DHT22;14685;50.618;7.024;2024-02-21T15:13:13;11.70;99.90
27164;DHT22;14685;50.618;7.024;2024-02-21T15:15:41;11.70;99.90
27164;DHT22;14685;50.618;7.024;2024-02-21T15:18:08;11.60;99.90
27164;DHT22;14685;50.618;7.024;2024-02-21T15:20:36;11.60;99.90
27164;DHT22;14685;50.618;7.024;2024-02-21T15:23:04;11.50;99.90
27164;DHT22;14685;50.618;7.024;2024-02-21T15:25:32;11.50;99.90
27164;DHT22;14685;50.618;7.024;2024-02-21T15:28:00;11.50;99.90
27164;DHT22;14685;50.618;7.024;2024-02-21T15:30:29;11.50;99.90
27164;DHT22;14685;50.618;7.024;2024-02-21T15:32:59;11.50;99.90
27164;DHT22;14685;50.618;7.024;2024-02-21T15:35:30;11.40;99.90
27164;DHT22;14685;50.618;7.024;2024-02-21T15:37:58;11.40;99.90
27164;DHT22;14685;50.618;7.024;2024-02-21T15:40:25;11.40;99.90